sensor_id;sensor_type;location;lat;lon;timestamp;P1;durP1;ratioP1;P2;durP2;ratioP2
44218;SDS011;29889;52.034;5.570;2023-03-14T00:00:06;3.53;;;1.90;;
44218;SDS011;29889;52.034;5.570;2023-03-14T00:00:38;4.25;;;1.85;;
44218;SDS011;29889;52.034;5.570;2023-03-14T00:01:10;5.18;;;1.95;;
44218;SDS011;29889;52.034;5.570;2023-03-14T00:01:43;3.08;;;1.70;;
44218;SDS011;29889;52.034;5.570;2023-03-14T00:02:15;4.85;;;2.20;;
44218;SDS011;29889;52.034;5.570;2023-03-14T00:02:45;3.67;;;1.83;;
44218;SDS011;29889;52.034;5.570;2023-03-14T00:03:16;4.95;;;2.00;;
44218;SDS011;29889;52.034;5.570;2023-03-14T00:03:48;3.95;;;2.40;;
44218;SDS011;29889;52.034;5.570;2023-03-14T00:04:19;5.68;;;2.15;;
44218;SDS011;29889;52.034;5.570;2023-03-14T00:04:49;4.15;;;1.92;;
44218;SDS011;29889;52.034;5.570;2023-03-14T00:05:24;3.38;;;1.80;;
44218;SDS011;29889;52.034;5.570;2023-03-14T00:05:55;6.25;;;2.08;;
44218;SDS011;29889;52.034;5.570;2023-03-14T00:06:26;3.88;;;1.92;;
44218;SDS011;29889;52.034;5.570;2023-03-14T00:06:57;3.13;;;1.70;;
44218;SDS011;29889;52.034;5.570;2023-03-14T00:07:28;5.57;;;2.08;;
44218;SDS011;29889;52.034;5.570;2023-03-14T00:08:03;4.57;;;2.05;;
44218;SDS011;29889;52.034;5.570;2023-03-14T00:08:34;3.60;;;1.83;;
44218;SDS011;29889;52.034;5.570;2023-03-14T00:09:06;4.72;;;1.40;;
44218;SDS011;29889;52.034;5.570;2023-03-14T00:09:37;1.98;;;1.40;;
44218;SDS011;29889;52.034;5.570;2023-03-14T00:10:09;3.95;;;1.63;;
44218;SDS011;29889;52.034;5.570;2023-03-14T00:10:40;3.97;;;2.08;;
44218;SDS011;29889;52.034;5.570;2023-03-14T00:11:16;3.95;;;1.60;;
44218;SDS011;29889;52.034;5.570;2023-03-14T00:11:48;3.03;;;1.45;;
44218;SDS011;29889;52.034;5.570;2023-03-14T00:12:19;5.10;;;1.80;;
44218;SDS011;29889;52.034;5.570;2023-03-14T00:12:50;3.50;;;1.42;;
44218;SDS011;29889;52.034;5.570;2023-03-14T00:13:21;3.97;;;2.00;;
44218;SDS011;29889;52.034;5.570;2023-03-14T00:13:51;5.10;;;2.10;;
44218;SDS011;29889;52.034;5.570;2023-03-14T00:14:23;4.72;;;1.73;;
44218;SDS011;29889;52.034;5.570;2023-03-14T00:14:54;3.25;;;1.60;;
44218;SDS011;29889;52.034;5.570;2023-03-14T00:15:25;3.27;;;1.73;;
44218;SDS011;29889;52.034;5.570;2023-03-14T00:16:01;3.80;;;1.60;;
44218;SDS011;29889;52.034;5.570;2023-03-14T00:16:32;4.13;;;1.90;;
44218;SDS011;29889;52.034;5.570;2023-03-14T00:17:03;4.20;;;1.80;;
44218;SDS011;29889;52.034;5.570;2023-03-14T00:17:34;3.10;;;1.80;;
44218;SDS011;29889;52.034;5.570;2023-03-14T00:18:05;3.97;;;1.80;;
44218;SDS011;29889;52.034;5.570;2023-03-14T00:18:36;4.70;;;2.13;;
44218;SDS011;29889;52.034;5.570;2023-03-14T00:19:08;4.88;;;1.92;;
44218;SDS011;29889;52.034;5.570;2023-03-14T00:19:39;3.70;;;1.90;;
44218;SDS011;29889;52.034;5.570;2023-03-14T00:20:10;4.93;;;2.10;;
44218;SDS011;29889;52.034;5.570;2023-03-14T00:20:41;5.35;;;1.85;;
44218;SDS011;29889;52.034;5.570;2023-03-14T00:21:12;5.30;;;2.47;;
44218;SDS011;29889;52.034;5.570;2023-03-14T00:21:43;3.97;;;1.95;;
44218;SDS011;29889;52.034;5.570;2023-03-14T00:22:14;3.57;;;1.90;;
44218;SDS011;29889;52.034;5.570;2023-03-14T00:22:45;6.03;;;1.80;;
44218;SDS011;29889;52.034;5.570;2023-03-14T00:23:16;4.38;;;1.88;;
44218;SDS011;29889;52.034;5.570;2023-03-14T00:23:47;4.47;;;1.90;;
44218;SDS011;29889;52.034;5.570;2023-03-14T00:24:18;3.42;;;1.60;;
44218;SDS011;29889;52.034;5.570;2023-03-14T00:24:50;4.93;;;2.08;;
44218;SDS011;29889;52.034;5.570;2023-03-14T00:25:21;3.45;;;1.85;;
44218;SDS011;29889;52.034;5.570;2023-03-14T00:25:52;3.67;;;2.22;;
44218;SDS011;29889;52.034;5.570;2023-03-14T00:26:23;2.40;;;1.45;;
44218;SDS011;29889;52.034;5.570;2023-03-14T00:26:53;5.40;;;1.83;;
44218;SDS011;29889;52.034;5.570;2023-03-14T00:27:24;5.10;;;1.70;;
44218;SDS011;29889;52.034;5.570;2023-03-14T00:27:55;5.25;;;1.88;;
44218;SDS011;29889;52.034;5.570;2023-03-14T00:28:27;4.73;;;2.07;;
44218;SDS011;29889;52.034;5.570;2023-03-14T00:28:58;3.72;;;1.58;;
44218;SDS011;29889;52.034;5.570;2023-03-14T00:29:29;5.10;;;1.65;;
44218;SDS011;29889;52.034;5.570;2023-03-14T00:30:00;3.35;;;1.50;;
44218;SDS011;29889;52.034;5.570;2023-03-14T00:30:31;4.15;;;1.65;;
44218;SDS011;29889;52.034;5.570;2023-03-14T00:31:03;2.90;;;1.57;;
44218;SDS011;29889;52.034;5.570;2023-03-14T00:31:34;4.53;;;1.58;;
44218;SDS011;29889;52.034;5.570;2023-03-14T00:32:06;4.35;;;1.50;;
44218;SDS011;29889;52.034;5.570;2023-03-14T00:32:36;4.67;;;1.77;;
44218;SDS011;29889;52.034;5.570;2023-03-14T00:33:07;3.22;;;1.65;;
44218;SDS011;29889;52.034;5.570;2023-03-14T00:33:38;4.13;;;1.77;;
44218;SDS011;29889;52.034;5.570;2023-03-14T00:34:10;3.65;;;1.65;;
44218;SDS011;29889;52.034;5.570;2023-03-14T00:34:40;4.70;;;1.53;;
44218;SDS011;29889;52.034;5.570;2023-03-14T00:35:11;3.53;;;1.52;;
44218;SDS011;29889;52.034;5.570;2023-03-14T00:35:42;2.97;;;1.50;;
44218;SDS011;29889;52.034;5.570;2023-03-14T00:36:15;3.05;;;1.58;;
44218;SDS011;29889;52.034;5.570;2023-03-14T00:36:46;2.72;;;1.33;;
44218;SDS011;29889;52.034;5.570;2023-03-14T00:37:17;4.80;;;2.00;;
44218;SDS011;29889;52.034;5.570;2023-03-14T00:37:48;2.88;;;1.40;;
44218;SDS011;29889;52.034;5.570;2023-03-14T00:38:19;2.20;;;1.55;;
44218;SDS011;29889;52.034;5.570;2023-03-14T00:38:51;2.78;;;1.60;;
44218;SDS011;29889;52.034;5.570;2023-03-14T00:39:22;4.47;;;1.70;;
44218;SDS011;29889;52.034;5.570;2023-03-14T00:39:53;3.17;;;1.50;;
44218;SDS011;29889;52.034;5.570;2023-03-14T00:40:24;4.43;;;1.93;;
44218;SDS011;29889;52.034;5.570;2023-03-14T00:40:55;3.30;;;1.77;;
44218;SDS011;29889;52.034;5.570;2023-03-14T00:41:26;3.17;;;1.53;;
44218;SDS011;29889;52.034;5.570;2023-03-14T00:41:57;4.28;;;1.65;;
44218;SDS011;29889;52.034;5.570;2023-03-14T00:42:28;4.43;;;1.58;;
44218;SDS011;29889;52.034;5.570;2023-03-14T00:42:59;4.30;;;1.77;;
44218;SDS011;29889;52.034;5.570;2023-03-14T00:43:30;2.33;;;1.53;;
44218;SDS011;29889;52.034;5.570;2023-03-14T00:44:01;4.10;;;1.85;;
44218;SDS011;29889;52.034;5.570;2023-03-14T00:44:32;3.75;;;1.55;;
44218;SDS011;29889;52.034;5.570;2023-03-14T00:45:03;4.00;;;1.80;;
44218;SDS011;29889;52.034;5.570;2023-03-14T00:45:34;3.35;;;1.40;;
44218;SDS011;29889;52.034;5.570;2023-03-14T00:46:06;3.42;;;1.58;;
44218;SDS011;29889;52.034;5.570;2023-03-14T00:46:37;2.38;;;1.10;;
44218;SDS011;29889;52.034;5.570;2023-03-14T00:47:08;3.80;;;1.60;;
44218;SDS011;29889;52.034;5.570;2023-03-14T00:47:39;5.70;;;1.92;;
44218;SDS011;29889;52.034;5.570;2023-03-14T00:48:10;3.70;;;1.73;;
44218;SDS011;29889;52.034;5.570;2023-03-14T00:48:41;4.18;;;1.70;;
44218;SDS011;29889;52.034;5.570;2023-03-14T00:49:12;3.65;;;1.73;;
44218;SDS011;29889;52.034;5.570;2023-03-14T00:49:43;2.70;;;1.50;;
44218;SDS011;29889;52.034;5.570;2023-03-14T00:50:14;3.25;;;1.88;;
44218;SDS011;29889;52.034;5.570;2023-03-14T00:50:45;4.53;;;1.75;;
44218;SDS011;29889;52.034;5.570;2023-03-14T00:51:16;4.15;;;1.65;;
44218;SDS011;29889;52.034;5.570;2023-03-14T00:51:47;5.00;;;1.67;;
44218;SDS011;29889;52.034;5.570;2023-03-14T00:52:18;3.90;;;1.35;;
44218;SDS011;29889;52.034;5.570;2023-03-14T00:52:49;5.60;;;1.65;;
44218;SDS011;29889;52.034;5.570;2023-03-14T00:53:20;2.10;;;1.48;;
44218;SDS011;29889;52.034;5.570;2023-03-14T00:53:51;3.30;;;1.40;;
44218;SDS011;29889;52.034;5.570;2023-03-14T00:54:22;3.92;;;1.77;;
44218;SDS011;29889;52.034;5.570;2023-03-14T00:54:53;3.92;;;1.58;;
44218;SDS011;29889;52.034;5.570;2023-03-14T00:55:24;3.58;;;1.55;;
44218;SDS011;29889;52.034;5.570;2023-03-14T00:55:55;3.28;;;1.60;;
44218;SDS011;29889;52.034;5.570;2023-03-14T00:56:26;2.90;;;1.60;;
44218;SDS011;29889;52.034;5.570;2023-03-14T00:56:57;4.22;;;1.77;;
44218;SDS011;29889;52.034;5.570;2023-03-14T00:57:28;3.72;;;1.60;;
44218;SDS011;29889;52.034;5.570;2023-03-14T00:57:59;3.92;;;1.52;;
44218;SDS011;29889;52.034;5.570;2023-03-14T00:58:30;4.40;;;1.80;;
44218;SDS011;29889;52.034;5.570;2023-03-14T00:59:01;3.75;;;1.50;;
44218;SDS011;29889;52.034;5.570;2023-03-14T00:59:32;2.85;;;1.50;;
44218;SDS011;29889;52.034;5.570;2023-03-14T01:00:03;3.53;;;1.52;;
44218;SDS011;29889;52.034;5.570;2023-03-14T01:00:36;3.42;;;1.60;;
44218;SDS011;29889;52.034;5.570;2023-03-14T01:01:08;3.83;;;1.75;;
44218;SDS011;29889;52.034;5.570;2023-03-14T01:01:39;2.30;;;1.40;;
44218;SDS011;29889;52.034;5.570;2023-03-14T01:02:11;2.65;;;1.35;;
44218;SDS011;29889;52.034;5.570;2023-03-14T01:02:43;5.25;;;1.83;;
44218;SDS011;29889;52.034;5.570;2023-03-14T01:03:14;2.50;;;1.30;;
44218;SDS011;29889;52.034;5.570;2023-03-14T01:03:45;4.43;;;1.60;;
44218;SDS011;29889;52.034;5.570;2023-03-14T01:04:16;3.88;;;1.67;;
44218;SDS011;29889;52.034;5.570;2023-03-14T01:04:48;2.72;;;1.50;;
44218;SDS011;29889;52.034;5.570;2023-03-14T01:05:19;2.78;;;1.42;;
44218;SDS011;29889;52.034;5.570;2023-03-14T01:05:50;3.78;;;1.35;;
44218;SDS011;29889;52.034;5.570;2023-03-14T01:06:22;4.70;;;1.83;;
44218;SDS011;29889;52.034;5.570;2023-03-14T01:06:53;4.55;;;1.40;;
44218;SDS011;29889;52.034;5.570;2023-03-14T01:07:24;4.10;;;1.60;;
44218;SDS011;29889;52.034;5.570;2023-03-14T01:07:55;2.40;;;1.38;;
44218;SDS011;29889;52.034;5.570;2023-03-14T01:08:26;3.33;;;1.50;;
44218;SDS011;29889;52.034;5.570;2023-03-14T01:08:57;4.25;;;1.65;;
44218;SDS011;29889;52.034;5.570;2023-03-14T01:09:28;3.00;;;1.30;;
44218;SDS011;29889;52.034;5.570;2023-03-14T01:09:59;3.63;;;1.52;;
44218;SDS011;29889;52.034;5.570;2023-03-14T01:10:30;2.70;;;1.48;;
44218;SDS011;29889;52.034;5.570;2023-03-14T01:11:05;4.80;;;1.50;;
44218;SDS011;29889;52.034;5.570;2023-03-14T01:11:36;2.85;;;1.50;;
44218;SDS011;29889;52.034;5.570;2023-03-14T01:12:07;4.40;;;1.40;;
44218;SDS011;29889;52.034;5.570;2023-03-14T01:12:38;4.20;;;1.83;;
44218;SDS011;29889;52.034;5.570;2023-03-14T01:13:09;2.67;;;1.52;;
44218;SDS011;29889;52.034;5.570;2023-03-14T01:13:41;3.90;;;1.40;;
44218;SDS011;29889;52.034;5.570;2023-03-14T01:14:12;2.28;;;1.35;;
44218;SDS011;29889;52.034;5.570;2023-03-14T01:14:43;2.75;;;1.85;;
44218;SDS011;29889;52.034;5.570;2023-03-14T01:15:14;2.33;;;1.25;;
44218;SDS011;29889;52.034;5.570;2023-03-14T01:15:46;2.33;;;1.40;;
44218;SDS011;29889;52.034;5.570;2023-03-14T01:16:17;2.40;;;1.52;;
44218;SDS011;29889;52.034;5.570;2023-03-14T01:16:49;4.05;;;1.67;;
44218;SDS011;29889;52.034;5.570;2023-03-14T01:17:20;3.30;;;1.30;;
44218;SDS011;29889;52.034;5.570;2023-03-14T01:17:51;3.60;;;1.48;;
44218;SDS011;29889;52.034;5.570;2023-03-14T01:18:22;2.60;;;1.20;;
44218;SDS011;29889;52.034;5.570;2023-03-14T01:18:53;2.78;;;1.40;;
44218;SDS011;29889;52.034;5.570;2023-03-14T01:19:24;2.83;;;1.05;;
44218;SDS011;29889;52.034;5.570;2023-03-14T01:19:55;2.88;;;1.42;;
44218;SDS011;29889;52.034;5.570;2023-03-14T01:20:26;3.25;;;1.60;;
44218;SDS011;29889;52.034;5.570;2023-03-14T01:20:57;4.38;;;1.65;;
44218;SDS011;29889;52.034;5.570;2023-03-14T01:21:30;5.97;;;1.83;;
44218;SDS011;29889;52.034;5.570;2023-03-14T01:22:01;3.40;;;1.13;;
44218;SDS011;29889;52.034;5.570;2023-03-14T01:22:32;3.85;;;1.30;;
44218;SDS011;29889;52.034;5.570;2023-03-14T01:23:03;2.33;;;1.35;;
44218;SDS011;29889;52.034;5.570;2023-03-14T01:23:34;3.33;;;1.48;;
44218;SDS011;29889;52.034;5.570;2023-03-14T01:24:05;3.65;;;1.88;;
44218;SDS011;29889;52.034;5.570;2023-03-14T01:24:36;4.10;;;1.30;;
44218;SDS011;29889;52.034;5.570;2023-03-14T01:25:08;3.17;;;1.55;;
44218;SDS011;29889;52.034;5.570;2023-03-14T01:25:42;2.50;;;1.10;;
44218;SDS011;29889;52.034;5.570;2023-03-14T01:26:14;2.40;;;1.20;;
44218;SDS011;29889;52.034;5.570;2023-03-14T01:26:46;3.55;;;1.55;;
44218;SDS011;29889;52.034;5.570;2023-03-14T01:27:17;3.00;;;1.42;;
44218;SDS011;29889;52.034;5.570;2023-03-14T01:27:48;2.43;;;1.40;;
44218;SDS011;29889;52.034;5.570;2023-03-14T01:28:19;2.95;;;1.00;;
44218;SDS011;29889;52.034;5.570;2023-03-14T01:28:50;3.78;;;1.42;;
44218;SDS011;29889;52.034;5.570;2023-03-14T01:29:23;3.22;;;1.30;;
44218;SDS011;29889;52.034;5.570;2023-03-14T01:29:54;3.40;;;1.17;;
44218;SDS011;29889;52.034;5.570;2023-03-14T01:30:25;1.77;;;1.10;;
44218;SDS011;29889;52.034;5.570;2023-03-14T01:30:56;3.33;;;1.27;;
44218;SDS011;29889;52.034;5.570;2023-03-14T01:31:27;3.17;;;1.20;;
44218;SDS011;29889;52.034;5.570;2023-03-14T01:31:58;4.00;;;1.65;;
44218;SDS011;29889;52.034;5.570;2023-03-14T01:32:29;2.88;;;1.38;;
44218;SDS011;29889;52.034;5.570;2023-03-14T01:33:00;4.63;;;1.85;;
44218;SDS011;29889;52.034;5.570;2023-03-14T01:33:31;3.33;;;1.23;;
44218;SDS011;29889;52.034;5.570;2023-03-14T01:34:02;2.72;;;1.30;;
44218;SDS011;29889;52.034;5.570;2023-03-14T01:34:33;2.90;;;1.20;;
44218;SDS011;29889;52.034;5.570;2023-03-14T01:35:04;3.95;;;1.30;;
44218;SDS011;29889;52.034;5.570;2023-03-14T01:35:35;3.78;;;1.25;;
44218;SDS011;29889;52.034;5.570;2023-03-14T01:36:06;2.75;;;1.30;;
44218;SDS011;29889;52.034;5.570;2023-03-14T01:36:37;2.70;;;1.23;;
44218;SDS011;29889;52.034;5.570;2023-03-14T01:37:08;4.55;;;1.40;;
44218;SDS011;29889;52.034;5.570;2023-03-14T01:37:41;3.17;;;1.10;;
44218;SDS011;29889;52.034;5.570;2023-03-14T01:38:12;2.38;;;1.20;;
44218;SDS011;29889;52.034;5.570;2023-03-14T01:38:43;3.17;;;1.30;;
44218;SDS011;29889;52.034;5.570;2023-03-14T01:39:14;2.80;;;1.38;;
44218;SDS011;29889;52.034;5.570;2023-03-14T01:39:48;3.20;;;1.40;;
44218;SDS011;29889;52.034;5.570;2023-03-14T01:40:19;3.13;;;1.50;;
44218;SDS011;29889;52.034;5.570;2023-03-14T01:40:50;3.20;;;1.50;;
44218;SDS011;29889;52.034;5.570;2023-03-14T01:41:22;2.57;;;1.20;;
44218;SDS011;29889;52.034;5.570;2023-03-14T01:41:53;3.72;;;1.30;;
44218;SDS011;29889;52.034;5.570;2023-03-14T01:42:24;3.10;;;1.33;;
44218;SDS011;29889;52.034;5.570;2023-03-14T01:42:56;2.83;;;1.80;;
44218;SDS011;29889;52.034;5.570;2023-03-14T01:43:27;3.25;;;1.35;;
44218;SDS011;29889;52.034;5.570;2023-03-14T01:43:58;2.63;;;1.20;;
44218;SDS011;29889;52.034;5.570;2023-03-14T01:46:19;2.65;;;1.17;;
44218;SDS011;29889;52.034;5.570;2023-03-14T01:46:51;3.05;;;1.20;;
44218;SDS011;29889;52.034;5.570;2023-03-14T01:47:22;3.53;;;1.10;;
44218;SDS011;29889;52.034;5.570;2023-03-14T01:47:53;2.97;;;1.48;;
44218;SDS011;29889;52.034;5.570;2023-03-14T01:48:25;1.77;;;1.03;;
44218;SDS011;29889;52.034;5.570;2023-03-14T01:49:03;2.15;;;1.13;;
44218;SDS011;29889;52.034;5.570;2023-03-14T01:49:36;2.35;;;1.25;;
44218;SDS011;29889;52.034;5.570;2023-03-14T01:50:08;2.85;;;1.33;;
44218;SDS011;29889;52.034;5.570;2023-03-14T01:50:41;3.28;;;1.13;;
44218;SDS011;29889;52.034;5.570;2023-03-14T01:51:19;2.78;;;1.33;;
44218;SDS011;29889;52.034;5.570;2023-03-14T01:51:58;2.70;;;1.63;;
44218;SDS011;29889;52.034;5.570;2023-03-14T01:53:03;3.47;;;1.60;;
44218;SDS011;29889;52.034;5.570;2023-03-14T01:53:34;2.70;;;1.05;;
44218;SDS011;29889;52.034;5.570;2023-03-14T01:54:08;2.22;;;1.20;;
44218;SDS011;29889;52.034;5.570;2023-03-14T01:54:42;2.47;;;1.05;;
44218;SDS011;29889;52.034;5.570;2023-03-14T01:55:14;2.38;;;1.15;;
44218;SDS011;29889;52.034;5.570;2023-03-14T01:55:49;1.98;;;1.15;;
44218;SDS011;29889;52.034;5.570;2023-03-14T01:56:20;2.25;;;1.27;;
44218;SDS011;29889;52.034;5.570;2023-03-14T01:57:38;2.47;;;1.17;;
44218;SDS011;29889;52.034;5.570;2023-03-14T01:57:47;4.07;;;1.20;;
44218;SDS011;29889;52.034;5.570;2023-03-14T01:58:20;3.00;;;1.40;;
44218;SDS011;29889;52.034;5.570;2023-03-14T01:58:51;2.30;;;1.08;;
44218;SDS011;29889;52.034;5.570;2023-03-14T01:59:22;2.72;;;1.23;;
44218;SDS011;29889;52.034;5.570;2023-03-14T01:59:56;2.72;;;1.25;;
44218;SDS011;29889;52.034;5.570;2023-03-14T02:00:28;2.75;;;1.10;;
44218;SDS011;29889;52.034;5.570;2023-03-14T02:00:59;2.65;;;1.15;;
44218;SDS011;29889;52.034;5.570;2023-03-14T02:01:32;2.15;;;1.27;;
44218;SDS011;29889;52.034;5.570;2023-03-14T02:02:04;3.03;;;1.10;;
44218;SDS011;29889;52.034;5.570;2023-03-14T02:02:37;4.55;;;1.30;;
44218;SDS011;29889;52.034;5.570;2023-03-14T02:03:10;2.90;;;1.20;;
44218;SDS011;29889;52.034;5.570;2023-03-14T02:03:55;2.90;;;1.10;;
44218;SDS011;29889;52.034;5.570;2023-03-14T02:04:28;2.95;;;1.27;;
44218;SDS011;29889;52.034;5.570;2023-03-14T02:04:59;2.60;;;1.45;;
44218;SDS011;29889;52.034;5.570;2023-03-14T02:05:34;3.13;;;1.15;;
44218;SDS011;29889;52.034;5.570;2023-03-14T02:06:06;4.25;;;1.70;;
44218;SDS011;29889;52.034;5.570;2023-03-14T02:06:48;2.60;;;1.38;;
44218;SDS011;29889;52.034;5.570;2023-03-14T02:08:04;2.40;;;1.15;;
44218;SDS011;29889;52.034;5.570;2023-03-14T02:08:36;2.65;;;1.17;;
44218;SDS011;29889;52.034;5.570;2023-03-14T02:09:08;2.80;;;1.05;;
44218;SDS011;29889;52.034;5.570;2023-03-14T02:09:39;2.85;;;1.10;;
44218;SDS011;29889;52.034;5.570;2023-03-14T02:10:10;2.15;;;1.20;;
44218;SDS011;29889;52.034;5.570;2023-03-14T02:10:42;1.90;;;1.00;;
44218;SDS011;29889;52.034;5.570;2023-03-14T02:11:15;2.55;;;1.13;;
44218;SDS011;29889;52.034;5.570;2023-03-14T02:11:46;3.00;;;1.23;;
44218;SDS011;29889;52.034;5.570;2023-03-14T02:12:18;2.22;;;1.10;;
44218;SDS011;29889;52.034;5.570;2023-03-14T02:12:51;1.90;;;1.00;;
44218;SDS011;29889;52.034;5.570;2023-03-14T02:13:23;3.10;;;1.00;;
44218;SDS011;29889;52.034;5.570;2023-03-14T02:13:54;1.35;;;1.00;;
44218;SDS011;29889;52.034;5.570;2023-03-14T02:14:30;3.95;;;1.10;;
44218;SDS011;29889;52.034;5.570;2023-03-14T02:15:02;1.77;;;1.10;;
44218;SDS011;29889;52.034;5.570;2023-03-14T02:15:33;3.22;;;1.25;;
44218;SDS011;29889;52.034;5.570;2023-03-14T02:16:04;2.55;;;1.13;;
44218;SDS011;29889;52.034;5.570;2023-03-14T02:16:35;3.78;;;1.42;;
44218;SDS011;29889;52.034;5.570;2023-03-14T02:17:06;3.30;;;1.40;;
44218;SDS011;29889;52.034;5.570;2023-03-14T02:17:38;2.22;;;1.15;;
44218;SDS011;29889;52.034;5.570;2023-03-14T02:18:11;3.58;;;1.60;;
44218;SDS011;29889;52.034;5.570;2023-03-14T02:18:43;2.58;;;1.00;;
44218;SDS011;29889;52.034;5.570;2023-03-14T02:19:14;3.88;;;1.05;;
44218;SDS011;29889;52.034;5.570;2023-03-14T02:20:34;2.90;;;1.33;;
44218;SDS011;29889;52.034;5.570;2023-03-14T02:20:53;3.92;;;1.63;;
44218;SDS011;29889;52.034;5.570;2023-03-14T02:22:14;2.13;;;0.80;;
44218;SDS011;29889;52.034;5.570;2023-03-14T02:22:46;3.50;;;1.10;;
44218;SDS011;29889;52.034;5.570;2023-03-14T02:23:20;2.00;;;1.00;;
44218;SDS011;29889;52.034;5.570;2023-03-14T02:24:35;2.70;;;1.33;;
44218;SDS011;29889;52.034;5.570;2023-03-14T02:27:09;2.03;;;0.90;;
44218;SDS011;29889;52.034;5.570;2023-03-14T02:27:40;1.48;;;0.90;;
44218;SDS011;29889;52.034;5.570;2023-03-14T02:28:11;1.45;;;0.90;;
44218;SDS011;29889;52.034;5.570;2023-03-14T02:28:43;2.47;;;0.88;;
44218;SDS011;29889;52.034;5.570;2023-03-14T02:29:14;2.50;;;1.15;;
44218;SDS011;29889;52.034;5.570;2023-03-14T02:29:48;2.95;;;1.20;;
44218;SDS011;29889;52.034;5.570;2023-03-14T02:30:21;4.03;;;1.08;;
44218;SDS011;29889;52.034;5.570;2023-03-14T02:30:52;2.78;;;1.02;;
44218;SDS011;29889;52.034;5.570;2023-03-14T02:31:23;2.45;;;0.98;;
44218;SDS011;29889;52.034;5.570;2023-03-14T02:31:54;3.03;;;1.20;;
44218;SDS011;29889;52.034;5.570;2023-03-14T02:32:26;3.30;;;1.27;;
44218;SDS011;29889;52.034;5.570;2023-03-14T02:33:07;1.95;;;1.00;;
44218;SDS011;29889;52.034;5.570;2023-03-14T02:33:38;3.33;;;1.15;;
44218;SDS011;29889;52.034;5.570;2023-03-14T02:34:09;1.40;;;0.80;;
44218;SDS011;29889;52.034;5.570;2023-03-14T02:34:40;2.63;;;1.17;;
44218;SDS011;29889;52.034;5.570;2023-03-14T02:35:14;1.77;;;1.00;;
44218;SDS011;29889;52.034;5.570;2023-03-14T02:35:47;3.83;;;1.20;;
44218;SDS011;29889;52.034;5.570;2023-03-14T02:36:19;2.15;;;1.13;;
44218;SDS011;29889;52.034;5.570;2023-03-14T02:36:51;2.67;;;1.15;;
44218;SDS011;29889;52.034;5.570;2023-03-14T02:37:24;2.47;;;0.93;;
44218;SDS011;29889;52.034;5.570;2023-03-14T02:39:49;3.25;;;1.55;;
44218;SDS011;29889;52.034;5.570;2023-03-14T02:40:01;2.47;;;1.13;;
44218;SDS011;29889;52.034;5.570;2023-03-14T02:40:34;2.40;;;0.95;;
44218;SDS011;29889;52.034;5.570;2023-03-14T02:41:05;1.42;;;1.02;;
44218;SDS011;29889;52.034;5.570;2023-03-14T02:41:36;3.10;;;1.45;;
44218;SDS011;29889;52.034;5.570;2023-03-14T02:42:07;3.63;;;1.50;;
44218;SDS011;29889;52.034;5.570;2023-03-14T02:42:38;2.92;;;1.05;;
44218;SDS011;29889;52.034;5.570;2023-03-14T02:43:09;3.20;;;1.00;;
44218;SDS011;29889;52.034;5.570;2023-03-14T02:43:40;2.05;;;1.05;;
44218;SDS011;29889;52.034;5.570;2023-03-14T02:44:11;2.83;;;1.40;;
44218;SDS011;29889;52.034;5.570;2023-03-14T02:44:49;1.38;;;0.88;;
44218;SDS011;29889;52.034;5.570;2023-03-14T02:45:52;2.93;;;1.30;;
44218;SDS011;29889;52.034;5.570;2023-03-14T02:46:23;2.40;;;1.02;;
44218;SDS011;29889;52.034;5.570;2023-03-14T02:46:54;2.45;;;1.30;;
44218;SDS011;29889;52.034;5.570;2023-03-14T02:47:29;1.98;;;0.98;;
44218;SDS011;29889;52.034;5.570;2023-03-14T02:48:02;1.65;;;0.85;;
44218;SDS011;29889;52.034;5.570;2023-03-14T02:48:36;3.50;;;1.60;;
44218;SDS011;29889;52.034;5.570;2023-03-14T02:49:10;2.58;;;1.10;;
44218;SDS011;29889;52.034;5.570;2023-03-14T02:49:42;1.95;;;1.05;;
44218;SDS011;29889;52.034;5.570;2023-03-14T02:50:17;3.03;;;1.35;;
44218;SDS011;29889;52.034;5.570;2023-03-14T02:50:51;3.17;;;1.33;;
44218;SDS011;29889;52.034;5.570;2023-03-14T02:51:23;1.48;;;1.02;;
44218;SDS011;29889;52.034;5.570;2023-03-14T02:51:54;3.60;;;1.52;;
44218;SDS011;29889;52.034;5.570;2023-03-14T02:52:25;2.53;;;1.10;;
44218;SDS011;29889;52.034;5.570;2023-03-14T02:52:56;2.30;;;1.10;;
44218;SDS011;29889;52.034;5.570;2023-03-14T02:53:28;3.45;;;1.23;;
44218;SDS011;29889;52.034;5.570;2023-03-14T02:54:00;1.77;;;1.08;;
44218;SDS011;29889;52.034;5.570;2023-03-14T02:54:31;3.10;;;1.02;;
44218;SDS011;29889;52.034;5.570;2023-03-14T02:55:02;3.33;;;1.20;;
44218;SDS011;29889;52.034;5.570;2023-03-14T02:55:33;2.70;;;1.02;;
44218;SDS011;29889;52.034;5.570;2023-03-14T02:56:05;3.55;;;1.08;;
44218;SDS011;29889;52.034;5.570;2023-03-14T02:56:36;2.78;;;1.10;;
44218;SDS011;29889;52.034;5.570;2023-03-14T02:57:07;3.67;;;1.10;;
44218;SDS011;29889;52.034;5.570;2023-03-14T02:57:38;1.95;;;0.95;;
44218;SDS011;29889;52.034;5.570;2023-03-14T02:58:09;2.72;;;1.10;;
44218;SDS011;29889;52.034;5.570;2023-03-14T02:58:40;3.13;;;1.08;;
44218;SDS011;29889;52.034;5.570;2023-03-14T02:59:11;2.63;;;1.00;;
44218;SDS011;29889;52.034;5.570;2023-03-14T02:59:42;3.03;;;1.10;;
44218;SDS011;29889;52.034;5.570;2023-03-14T03:00:13;2.03;;;1.10;;
44218;SDS011;29889;52.034;5.570;2023-03-14T03:00:44;2.47;;;1.05;;
44218;SDS011;29889;52.034;5.570;2023-03-14T03:01:16;2.97;;;1.33;;
44218;SDS011;29889;52.034;5.570;2023-03-14T03:01:47;1.75;;;0.93;;
44218;SDS011;29889;52.034;5.570;2023-03-14T03:02:18;1.77;;;0.98;;
44218;SDS011;29889;52.034;5.570;2023-03-14T03:02:49;1.80;;;1.00;;
44218;SDS011;29889;52.034;5.570;2023-03-14T03:03:20;1.95;;;1.08;;
44218;SDS011;29889;52.034;5.570;2023-03-14T03:03:51;2.47;;;1.15;;
44218;SDS011;29889;52.034;5.570;2023-03-14T03:04:22;1.97;;;0.93;;
44218;SDS011;29889;52.034;5.570;2023-03-14T03:04:53;2.72;;;1.33;;
44218;SDS011;29889;52.034;5.570;2023-03-14T03:05:24;3.37;;;1.00;;
44218;SDS011;29889;52.034;5.570;2023-03-14T03:05:55;1.67;;;1.00;;
44218;SDS011;29889;52.034;5.570;2023-03-14T03:06:27;2.00;;;0.95;;
44218;SDS011;29889;52.034;5.570;2023-03-14T03:06:58;2.70;;;1.10;;
44218;SDS011;29889;52.034;5.570;2023-03-14T03:07:29;2.15;;;1.15;;
44218;SDS011;29889;52.034;5.570;2023-03-14T03:08:00;2.10;;;1.13;;
44218;SDS011;29889;52.034;5.570;2023-03-14T03:08:31;1.83;;;0.70;;
44218;SDS011;29889;52.034;5.570;2023-03-14T03:09:02;2.15;;;0.90;;
44218;SDS011;29889;52.034;5.570;2023-03-14T03:09:33;2.13;;;1.10;;
44218;SDS011;29889;52.034;5.570;2023-03-14T03:10:04;1.67;;;1.13;;
44218;SDS011;29889;52.034;5.570;2023-03-14T03:10:35;3.83;;;1.10;;
44218;SDS011;29889;52.034;5.570;2023-03-14T03:11:07;1.65;;;0.80;;
44218;SDS011;29889;52.034;5.570;2023-03-14T03:11:38;2.03;;;1.10;;
44218;SDS011;29889;52.034;5.570;2023-03-14T03:12:08;1.80;;;0.73;;
44218;SDS011;29889;52.034;5.570;2023-03-14T03:12:39;3.05;;;0.90;;
44218;SDS011;29889;52.034;5.570;2023-03-14T03:13:10;2.83;;;1.23;;
44218;SDS011;29889;52.034;5.570;2023-03-14T03:13:41;3.75;;;1.27;;
44218;SDS011;29889;52.034;5.570;2023-03-14T03:14:12;2.63;;;1.25;;
44218;SDS011;29889;52.034;5.570;2023-03-14T03:14:43;2.92;;;0.98;;
44218;SDS011;29889;52.034;5.570;2023-03-14T03:15:14;1.92;;;1.25;;
44218;SDS011;29889;52.034;5.570;2023-03-14T03:15:45;1.50;;;1.10;;
44218;SDS011;29889;52.034;5.570;2023-03-14T03:16:16;3.05;;;1.00;;
44218;SDS011;29889;52.034;5.570;2023-03-14T03:16:47;2.60;;;0.93;;
44218;SDS011;29889;52.034;5.570;2023-03-14T03:17:18;2.88;;;1.27;;
44218;SDS011;29889;52.034;5.570;2023-03-14T03:17:49;1.95;;;0.98;;
44218;SDS011;29889;52.034;5.570;2023-03-14T03:18:20;5.20;;;1.30;;
44218;SDS011;29889;52.034;5.570;2023-03-14T03:18:51;2.75;;;1.20;;
44218;SDS011;29889;52.034;5.570;2023-03-14T03:19:22;3.83;;;1.40;;
44218;SDS011;29889;52.034;5.570;2023-03-14T03:19:53;2.05;;;0.95;;
44218;SDS011;29889;52.034;5.570;2023-03-14T03:20:24;2.72;;;1.10;;